Time;durP1;ratioP1;P1;durP2;ratioP2;P2;SDS_P1;SDS_P2;PMS_P1;PMS_P2;Temp;Humidity;BMP_temperature;BMP_pressure;BME280_temperature;BME280_humidity;BME280_pressure;Samples;Min_cycle;Max_cycle;Signal;HPM_P1;HPM_P2
2023/05/16 06:45:36;;;;;;;;;0.33;0.00;;;;;;;;4617946;30;45500;-89
2023/05/16 06:48:22;;;;;;;;;0.33;0.33;;;;;;;;4618175;30;45509;-90
2023/05/16 06:54:37;;;;;;;;;;;;;;;;;;;;;
2023/05/16 07:00:17;;;;;;;;;0.00;0.00;;;;;;;;4682189;25;45538;-94
2023/05/16 07:02:44;;;;;;;;;0.00;0.00;;;;;;;;4649622;30;47631;-94
2023/05/16 07:05:10;;;;;;;;;0.00;0.00;;;;;;;;4650759;30;45365;-93
2023/05/16 07:07:58;;;;;;;;;1.00;1.00;;;;;;;;4647400;30;45451;-94
2023/05/16 07:10:26;;;;;;;;;0.00;0.00;;;;;;;;4661411;30;45540;-94
2023/05/16 07:13:00;;;;;;;;;0.00;0.00;;;;;;;;4656258;30;46769;-93
2023/05/16 07:15:31;;;;;;;;;0.00;0.00;;;;;;;;4655197;30;45452;-93
2023/05/16 07:18:06;;;;;;;;;0.00;0.00;;;;;;;;4661774;30;46409;-93
2023/05/16 07:20:31;;;;;;;;;1.00;1.00;;;;;;;;4667642;30;45325;-95
2023/05/16 07:41:16;;;;;;;;;0.67;0.67;;;;;;;;5595674;25;45958;31
2023/05/16 07:50:13;;;;;;;;;1.00;1.00;;;;;;;;4922131;24;45839;-93
2023/05/16 07:53:44;;;;;;;;;0.00;0.00;;;;;;;;4658818;30;45477;-93
2023/05/16 07:56:17;;;;;;;;;1.33;1.00;;;;;;;;4657222;30;45581;-93
2023/05/16 08:10:43;;;;;;;;;0.67;0.67;;;;;;;;5367508;25;46990;-91
2023/05/16 08:36:56;;;;;;;;;0.67;0.67;;;;;;;;4853742;25;45653;-92
2023/05/16 08:39:21;;;;;;;;;0.00;0.00;;;;;;;;4735410;25;46889;-90
2023/05/16 08:41:47;;;;;;;;;0.00;0.00;;;;;;;;4639144;30;45533;-90
2023/05/16 08:44:19;;;;;;;;;0.00;0.00;;;;;;;;4638051;30;45269;-90
2023/05/16 08:46:47;;;;;;;;;0.00;0.00;;;;;;;;4648223;30;45498;-91
2023/05/16 08:49:12;;;;;;;;;0.00;0.00;;;;;;;;4637763;30;45349;-90
2023/05/16 08:51:39;;;;;;;;;1.00;1.00;;;;;;;;4638081;30;45235;-89
2023/05/16 08:54:10;;;;;;;;;0.00;0.00;;;;;;;;4643768;30;45278;-90
2023/05/16 08:56:36;;;;;;;;;0.33;0.33;;;;;;;;4645411;30;45351;-89
2023/05/16 08:59:02;;;;;;;;;1.00;0.00;;;;;;;;4646110;30;45255;-90
2023/05/16 09:01:27;;;;;;;;;2.00;2.00;;;;;;;;4654314;30;45397;-89
2023/05/16 09:03:54;;;;;;;;;1.00;0.00;;;;;;;;4642105;30;46327;-89
2023/05/16 09:06:19;;;;;;;;;0.67;0.67;;;;;;;;4637715;30;45275;-90
2023/05/16 09:08:45;;;;;;;;;1.00;1.00;;;;;;;;4623576;30;45482;-89
2023/05/16 09:11:10;;;;;;;;;0.00;0.00;;;;;;;;4654969;30;45517;-89
2023/05/16 09:13:36;;;;;;;;;1.00;0.00;;;;;;;;4654594;30;45504;-89
2023/05/16 09:16:12;;;;;;;;;1.33;0.00;;;;;;;;4639279;30;46086;-89
2023/05/16 09:18:38;;;;;;;;;0.00;0.00;;;;;;;;4625667;30;45513;-89
2023/05/16 09:21:05;;;;;;;;;0.00;0.00;;;;;;;;4638475;30;45502;-89
2023/05/16 09:23:31;;;;;;;;;0.00;0.00;;;;;;;;4645717;30;46176;-89
2023/05/16 09:25:57;;;;;;;;;0.00;0.00;;;;;;;;4644991;30;45309;-89
2023/05/16 09:28:22;;;;;;;;;0.00;0.00;;;;;;;;4636564;30;45342;-89
2023/05/16 09:30:48;;;;;;;;;0.00;0.00;;;;;;;;4647731;30;45647;-90
2023/05/16 09:33:13;;;;;;;;;0.00;0.00;;;;;;;;4651752;30;45464;-90
2023/05/16 09:35:39;;;;;;;;;0.00;0.00;;;;;;;;4649652;30;45740;-89
2023/05/16 09:38:04;;;;;;;;;0.00;0.00;;;;;;;;4638881;30;45148;-89
2023/05/16 09:40:29;;;;;;;;;0.00;0.00;;;;;;;;4635594;30;45557;-89
2023/05/16 09:43:01;;;;;;;;;0.00;0.00;;;;;;;;4638657;30;45995;-89
2023/05/16 09:45:26;;;;;;;;;0.67;0.00;;;;;;;;4654350;30;45176;-89
2023/05/16 09:47:51;;;;;;;;;0.00;0.00;;;;;;;;4638698;30;45616;-89
2023/05/16 09:50:17;;;;;;;;;0.00;0.00;;;;;;;;4651039;30;45334;-89
2023/05/16 09:52:42;;;;;;;;;0.00;0.00;;;;;;;;4648646;30;46202;-90
2023/05/16 09:55:08;;;;;;;;;0.00;0.00;;;;;;;;4636931;30;45172;-89
2023/05/16 09:57:38;;;;;;;;;0.00;0.00;;;;;;;;4625888;30;45474;-89
2023/05/16 10:00:07;;;;;;;;;0.00;0.00;;;;;;;;4643249;30;45457;-89
2023/05/16 10:02:32;;;;;;;;;0.00;0.00;;;;;;;;4636653;30;45323;-89
2023/05/16 10:04:58;;;;;;;;;1.00;1.00;;;;;;;;4636662;30;45433;-89
2023/05/16 10:07:23;;;;;;;;;0.00;0.00;;;;;;;;4636846;30;45290;-89
2023/05/16 10:09:51;;;;;;;;;2.00;0.00;;;;;;;;4644665;30;45253;-90
2023/05/16 10:12:17;;;;;;;;;0.00;0.00;;;;;;;;4626286;30;46833;-89
2023/05/16 10:14:45;;;;;;;;;0.33;0.33;;;;;;;;4638305;30;45306;-90
2023/05/16 10:17:11;;;;;;;;;0.33;0.33;;;;;;;;4638918;30;45239;-89
2023/05/16 10:19:37;;;;;;;;;1.00;1.00;;;;;;;;4642733;30;45314;-89
2023/05/16 10:22:04;;;;;;;;;1.00;0.00;;;;;;;;4631918;30;45959;-89
2023/05/16 10:24:42;;;;;;;;;0.00;0.00;;;;;;;;4636394;30;45268;-89
2023/05/16 10:27:08;;;;;;;;;0.00;0.00;;;;;;;;4636786;30;45385;-90
2023/05/16 10:29:33;;;;;;;;;0.00;0.00;;;;;;;;4640386;30;45443;-90
2023/05/16 10:31:58;;;;;;;;;1.00;1.00;;;;;;;;4647694;30;45448;-90
2023/05/16 10:34:24;;;;;;;;;0.00;0.00;;;;;;;;4653182;30;45409;-90
2023/05/16 10:36:50;;;;;;;;;0.00;0.00;;;;;;;;4653281;30;45259;-90
2023/05/16 10:39:16;;;;;;;;;0.00;0.00;;;;;;;;4651866;30;45550;-90
2023/05/16 10:41:42;;;;;;;;;0.00;0.00;;;;;;;;4636426;30;46353;-89
2023/05/16 10:44:12;;;;;;;;;0.00;0.00;;;;;;;;4637284;30;45319;-90
2023/05/16 10:46:37;;;;;;;;;0.00;0.00;;;;;;;;4621121;30;45353;-89
2023/05/16 10:49:18;;;;;;;;;0.00;0.00;;;;;;;;4638784;30;45349;-89
2023/05/16 10:51:43;;;;;;;;;0.00;0.00;;;;;;;;4636339;30;45454;-90
2023/05/16 10:54:11;;;;;;;;;0.00;0.00;;;;;;;;4636210;30;45331;-90
2023/05/16 10:56:37;;;;;;;;;0.00;0.00;;;;;;;;4636350;30;45294;-89
2023/05/16 10:59:03;;;;;;;;;0.00;0.00;;;;;;;;4631510;30;45336;-90
2023/05/16 11:01:33;;;;;;;;;0.00;0.00;;;;;;;;4626903;30;47927;-90
2023/05/16 11:06:24;;;;;;;;;1.33;0.00;;;;;;;;4644401;30;45412;-89
2023/05/16 11:11:39;;;;;;;;;0.00;0.00;;;;;;;;4649326;30;46009;-90
2023/05/16 11:14:05;;;;;;;;;0.00;0.00;;;;;;;;4640126;30;45233;-90
2023/05/16 11:16:32;;;;;;;;;0.00;0.00;;;;;;;;4635791;30;45298;-89
2023/05/16 11:22:23;;;;;;;;;0.00;0.00;;;;;;;;4639030;30;45426;-88
2023/05/16 11:25:00;;;;;;;;;0.00;0.00;;;;;;;;4650641;30;45558;-88
2023/05/16 11:27:29;;;;;;;;;0.00;0.00;;;;;;;;4640808;30;45239;-88
2023/05/16 11:29:58;;;;;;;;;1.00;1.00;;;;;;;;4645905;30;46233;-89
2023/05/16 11:32:23;;;;;;;;;0.00;0.00;;;;;;;;4648726;30;46141;-91
2023/05/16 11:34:50;;;;;;;;;0.00;0.00;;;;;;;;4642239;30;45281;-89
2023/05/16 11:37:15;;;;;;;;;0.00;0.00;;;;;;;;4631243;30;45531;-88
2023/05/16 11:39:41;;;;;;;;;0.00;0.00;;;;;;;;4648015;30;45568;-89
2023/05/16 11:42:06;;;;;;;;;0.00;0.00;;;;;;;;4639659;30;45560;-88
2023/05/16 11:44:31;;;;;;;;;0.00;0.00;;;;;;;;4641331;30;45427;-88
2023/05/16 11:46:57;;;;;;;;;0.00;0.00;;;;;;;;4646418;30;46652;-88
2023/05/16 11:49:22;;;;;;;;;1.00;0.00;;;;;;;;4626237;30;45338;-90
2023/05/16 11:51:48;;;;;;;;;0.00;0.00;;;;;;;;4640932;30;46491;-89
2023/05/16 11:54:14;;;;;;;;;0.00;0.00;;;;;;;;4655123;30;45384;-89
2023/05/16 11:56:40;;;;;;;;;0.00;0.00;;;;;;;;4631411;30;45486;-92
2023/05/16 11:59:05;;;;;;;;;0.00;0.00;;;;;;;;4647917;30;45323;-91
2023/05/16 12:01:35;;;;;;;;;0.00;0.00;;;;;;;;4650367;30;45474;-92
2023/05/16 12:04:00;;;;;;;;;0.00;0.00;;;;;;;;4637411;30;47120;-91
2023/05/16 12:06:26;;;;;;;;;0.00;0.00;;;;;;;;4643382;30;45645;-91
2023/05/16 12:08:52;;;;;;;;;0.00;0.00;;;;;;;;4654436;30;45520;-92
2023/05/16 12:11:17;;;;;;;;;0.00;0.00;;;;;;;;4642238;30;45556;-91
2023/05/16 12:13:45;;;;;;;;;0.00;0.00;;;;;;;;4638551;30;45455;-91
2023/05/16 12:16:11;;;;;;;;;0.00;0.00;;;;;;;;4649102;30;45471;-90
2023/05/16 12:18:38;;;;;;;;;0.00;0.00;;;;;;;;4650380;30;45561;-90
2023/05/16 12:21:03;;;;;;;;;0.00;0.00;;;;;;;;4647383;30;45613;-90
2023/05/16 12:23:30;;;;;;;;;0.00;0.00;;;;;;;;4650864;30;45317;-90
2023/05/16 12:25:56;;;;;;;;;0.00;0.00;;;;;;;;4653599;30;45300;-90
2023/05/16 12:28:21;;;;;;;;;0.00;0.00;;;;;;;;4651055;30;45556;-93
2023/05/16 12:30:50;;;;;;;;;0.00;0.00;;;;;;;;4648431;30;45485;-91
2023/05/16 12:33:15;;;;;;;;;0.00;0.00;;;;;;;;4642730;30;45437;-90
2023/05/16 12:35:53;;;;;;;;;1.00;0.00;;;;;;;;4650585;30;45555;-91
2023/05/16 12:38:19;;;;;;;;;0.00;0.00;;;;;;;;4653679;30;45164;-92
2023/05/16 12:40:44;;;;;;;;;0.00;0.00;;;;;;;;4645858;30;45353;-91
2023/05/16 12:43:18;;;;;;;;;0.00;0.00;;;;;;;;4653549;30;45333;-90
2023/05/16 12:45:53;;;;;;;;;0.00;0.00;;;;;;;;4651683;30;45288;-91
2023/05/16 12:48:19;;;;;;;;;0.00;0.00;;;;;;;;4653851;30;45244;-90
2023/05/16 12:50:45;;;;;;;;;0.00;0.00;;;;;;;;4641242;30;46118;-90
2023/05/16 12:53:14;;;;;;;;;0.00;0.00;;;;;;;;4638153;30;45378;-90
2023/05/16 12:55:40;;;;;;;;;0.00;0.00;;;;;;;;4633205;30;45420;-91
2023/05/16 12:58:05;;;;;;;;;0.00;0.00;;;;;;;;4648861;30;45447;-90
2023/05/16 13:00:30;;;;;;;;;0.00;0.00;;;;;;;;4650454;30;46383;-90
2023/05/16 13:02:56;;;;;;;;;0.00;0.00;;;;;;;;4647602;30;45275;-90
2023/05/16 13:05:22;;;;;;;;;0.00;0.00;;;;;;;;4647218;30;45224;-90
2023/05/16 13:07:50;;;;;;;;;0.00;0.00;;;;;;;;4645673;30;45492;-89
2023/05/16 13:10:15;;;;;;;;;0.00;0.00;;;;;;;;4645190;30;46143;-89
2023/05/16 13:12:40;;;;;;;;;0.00;0.00;;;;;;;;4645979;30;45547;-90
2023/05/16 13:15:06;;;;;;;;;0.00;0.00;;;;;;;;4631798;30;45449;-90
2023/05/16 13:17:35;;;;;;;;;0.00;0.00;;;;;;;;4647962;30;45445;-91
2023/05/16 13:20:01;;;;;;;;;0.00;0.00;;;;;;;;4636547;30;48082;-90
2023/05/16 13:22:27;;;;;;;;;0.00;0.00;;;;;;;;4650169;30;45578;-90
2023/05/16 13:24:52;;;;;;;;;0.00;0.00;;;;;;;;4647682;30;45936;-90
2023/05/16 13:27:17;;;;;;;;;0.00;0.00;;;;;;;;4636417;30;45279;-90
2023/05/16 13:29:43;;;;;;;;;0.00;0.00;;;;;;;;4651269;30;45519;-90
2023/05/16 13:32:08;;;;;;;;;0.00;0.00;;;;;;;;4652931;30;45167;-90
2023/05/16 13:34:34;;;;;;;;;0.00;0.00;;;;;;;;4650302;30;45497;-90
2023/05/16 13:36:59;;;;;;;;;0.00;0.00;;;;;;;;4628457;30;45217;-91
2023/05/16 13:39:24;;;;;;;;;0.00;0.00;;;;;;;;4648943;30;46364;-90
2023/05/16 13:41:50;;;;;;;;;0.33;0.33;;;;;;;;4652549;30;45412;-90
2023/05/16 13:44:15;;;;;;;;;0.00;0.00;;;;;;;;4654278;30;45368;-90
2023/05/16 13:46:40;;;;;;;;;0.00;0.00;;;;;;;;4654197;30;45544;-90
2023/05/16 13:49:06;;;;;;;;;0.00;0.00;;;;;;;;4653968;30;46444;-90
2023/05/16 13:51:31;;;;;;;;;0.00;0.00;;;;;;;;4653758;30;45322;-90
2023/05/16 13:53:56;;;;;;;;;0.00;0.00;;;;;;;;4637676;30;45440;-90
2023/05/16 13:56:21;;;;;;;;;0.00;0.00;;;;;;;;4621904;30;45666;-90
2023/05/16 13:58:49;;;;;;;;;0.00;0.00;;;;;;;;4645697;30;46374;-90
2023/05/16 14:01:14;;;;;;;;;0.00;0.00;;;;;;;;4653886;30;45409;-90
2023/05/16 14:03:39;;;;;;;;;0.00;0.00;;;;;;;;4653985;30;45397;-90
2023/05/16 14:06:05;;;;;;;;;0.00;0.00;;;;;;;;4638572;30;45389;-90
2023/05/16 14:08:30;;;;;;;;;0.00;0.00;;;;;;;;4653438;30;46593;-90
2023/05/16 14:10:55;;;;;;;;;0.00;0.00;;;;;;;;4637826;30;45341;-90
2023/05/16 14:13:20;;;;;;;;;0.00;0.00;;;;;;;;4644794;30;45465;-90
2023/05/16 14:15:45;;;;;;;;;0.00;0.00;;;;;;;;4649963;30;45468;-90
2023/05/16 14:18:12;;;;;;;;;0.00;0.00;;;;;;;;4647851;30;45453;-90
2023/05/16 14:20:37;;;;;;;;;0.00;0.00;;;;;;;;4634310;30;45275;-90
2023/05/16 14:23:02;;;;;;;;;0.00;0.00;;;;;;;;4627294;30;45356;-90
2023/05/16 14:25:27;;;;;;;;;0.00;0.00;;;;;;;;4627350;30;45490;-90
2023/05/16 14:27:53;;;;;;;;;0.00;0.00;;;;;;;;4644582;30;45785;-90
2023/05/16 14:30:18;;;;;;;;;0.00;0.00;;;;;;;;4644252;30;47154;-90
2023/05/16 14:32:43;;;;;;;;;0.00;0.00;;;;;;;;4649558;30;45254;-90
2023/05/16 14:35:09;;;;;;;;;0.00;0.00;;;;;;;;4649554;30;45416;-90
2023/05/16 14:37:34;;;;;;;;;0.00;0.00;;;;;;;;4649827;30;46102;-89
2023/05/16 14:39:59;;;;;;;;;0.00;0.00;;;;;;;;4652550;30;45291;-90
2023/05/16 14:42:25;;;;;;;;;0.00;0.00;;;;;;;;4630666;30;45262;-90
2023/05/16 14:44:50;;;;;;;;;0.00;0.00;;;;;;;;4642900;30;45247;-90
2023/05/16 14:47:16;;;;;;;;;0.00;0.00;;;;;;;;4647364;30;45679;-90
2023/05/16 14:49:41;;;;;;;;;0.00;0.00;;;;;;;;4645443;30;45243;-90
2023/05/16 14:52:06;;;;;;;;;0.00;0.00;;;;;;;;4631608;30;45283;-90
2023/05/16 14:54:32;;;;;;;;;0.00;0.00;;;;;;;;4640012;30;45489;-90
2023/05/16 14:56:58;;;;;;;;;0.00;0.00;;;;;;;;4620834;30;46121;-90
2023/05/16 14:59:24;;;;;;;;;0.00;0.00;;;;;;;;4643595;30;45439;-90
2023/05/16 15:01:49;;;;;;;;;0.00;0.00;;;;;;;;4652297;30;45448;-90
2023/05/16 15:04:14;;;;;;;;;0.00;0.00;;;;;;;;4631707;30;45553;-90
2023/05/16 15:06:40;;;;;;;;;0.00;0.00;;;;;;;;4646478;30;46079;-90
2023/05/16 15:09:05;;;;;;;;;0.00;0.00;;;;;;;;4644136;30;45548;-90
2023/05/16 15:11:31;;;;;;;;;0.00;0.00;;;;;;;;4652481;30;45544;-89
2023/05/16 15:13:56;;;;;;;;;0.00;0.00;;;;;;;;4646667;30;45480;-90
2023/05/16 15:16:21;;;;;;;;;0.00;0.00;;;;;;;;4632639;30;47334;-92
2023/05/16 15:18:46;;;;;;;;;0.00;0.00;;;;;;;;4641919;30;45387;-94
2023/05/16 15:21:12;;;;;;;;;0.00;0.00;;;;;;;;4630266;30;45488;-94
2023/05/16 15:23:37;;;;;;;;;0.00;0.00;;;;;;;;4631832;30;45505;-95
2023/05/16 15:26:02;;;;;;;;;0.00;0.00;;;;;;;;4630993;30;46221;-94
2023/05/16 15:28:28;;;;;;;;;0.00;0.00;;;;;;;;4629925;30;46129;-94
2023/05/16 15:30:53;;;;;;;;;0.00;0.00;;;;;;;;4631852;30;45216;-90
2023/05/16 15:33:18;;;;;;;;;1.00;1.00;;;;;;;;4651978;30;45153;-94
2023/05/16 15:35:43;;;;;;;;;0.00;0.00;;;;;;;;4654049;30;45426;-94
2023/05/16 15:38:09;;;;;;;;;0.00;0.00;;;;;;;;4642408;30;45271;-94
2023/05/16 15:40:35;;;;;;;;;0.00;0.00;;;;;;;;4630839;30;45195;-93
2023/05/16 15:43:00;;;;;;;;;0.00;0.00;;;;;;;;4651713;30;46133;-93
2023/05/16 15:45:25;;;;;;;;;0.00;0.00;;;;;;;;4643177;30;46264;-94
2023/05/16 15:47:50;;;;;;;;;0.33;0.33;;;;;;;;4641852;30;46002;-94
2023/05/16 15:50:16;;;;;;;;;0.00;0.00;;;;;;;;4645661;30;45440;-94
2023/05/16 15:52:41;;;;;;;;;0.00;0.00;;;;;;;;4654680;30;45449;-94
2023/05/16 15:55:06;;;;;;;;;0.00;0.00;;;;;;;;4636809;30;47168;-94
2023/05/16 15:57:31;;;;;;;;;0.00;0.00;;;;;;;;4647785;30;45394;-94
2023/05/16 15:59:57;;;;;;;;;0.00;0.00;;;;;;;;4630865;30;45440;-94
2023/05/16 16:02:25;;;;;;;;;0.00;0.00;;;;;;;;4647276;30;45516;-93
2023/05/16 16:04:50;;;;;;;;;0.00;0.00;;;;;;;;4631221;30;47276;-94
2023/05/16 16:07:16;;;;;;;;;0.67;0.67;;;;;;;;4637126;30;45699;-96
2023/05/16 16:09:41;;;;;;;;;0.00;0.00;;;;;;;;4646646;30;45720;-89
2023/05/16 16:12:07;;;;;;;;;0.00;0.00;;;;;;;;4645802;30;45433;-90
2023/05/16 16:14:35;;;;;;;;;0.00;0.00;;;;;;;;4633831;30;48030;-89
2023/05/16 16:17:00;;;;;;;;;0.00;0.00;;;;;;;;4631962;30;45454;-89
2023/05/16 16:19:26;;;;;;;;;0.00;0.00;;;;;;;;4647596;30;45405;-89
2023/05/16 16:21:51;;;;;;;;;0.00;0.00;;;;;;;;4638593;30;45494;-89
2023/05/16 16:24:16;;;;;;;;;0.67;0.00;;;;;;;;4654585;30;46393;-90
2023/05/16 16:26:42;;;;;;;;;0.00;0.00;;;;;;;;4636542;30;45427;-89
2023/05/16 16:29:07;;;;;;;;;0.00;0.00;;;;;;;;4628481;30;45743;-90
2023/05/16 16:31:32;;;;;;;;;0.00;0.00;;;;;;;;4637082;30;45448;-89
2023/05/16 16:33:58;;;;;;;;;0.00;0.00;;;;;;;;4637804;30;46081;-89
2023/05/16 16:36:30;;;;;;;;;0.00;0.00;;;;;;;;4645712;30;45727;-90
2023/05/16 16:38:55;;;;;;;;;0.00;0.00;;;;;;;;4631155;30;45391;-89
2023/05/16 16:41:20;;;;;;;;;0.00;0.00;;;;;;;;4645484;30;45225;-90
2023/05/16 16:43:46;;;;;;;;;0.00;0.00;;;;;;;;4650927;30;45376;-89
2023/05/16 16:46:12;;;;;;;;;0.00;0.00;;;;;;;;4629087;30;45654;-89
2023/05/16 16:48:37;;;;;;;;;0.00;0.00;;;;;;;;4648657;30;45515;-89
2023/05/16 16:51:02;;;;;;;;;0.00;0.00;;;;;;;;4653326;30;45429;-89
2023/05/16 16:53:28;;;;;;;;;0.00;0.00;;;;;;;;4632937;30;47651;-89
2023/05/16 16:55:53;;;;;;;;;0.00;0.00;;;;;;;;4638160;30;45357;-89
2023/05/16 16:58:18;;;;;;;;;0.00;0.00;;;;;;;;4653444;30;45413;-89
2023/05/16 17:00:43;;;;;;;;;0.00;0.00;;;;;;;;4647641;30;45459;-89
2023/05/16 17:03:09;;;;;;;;;0.00;0.00;;;;;;;;4643526;30;45435;-89
2023/05/16 17:05:35;;;;;;;;;0.00;0.00;;;;;;;;4627155;30;45307;-89
2023/05/16 17:08:02;;;;;;;;;0.00;0.00;;;;;;;;4630345;30;45435;-89
2023/05/16 17:10:28;;;;;;;;;0.33;0.33;;;;;;;;4631936;30;45891;-89
2023/05/16 17:12:53;;;;;;;;;0.00;0.00;;;;;;;;4640174;30;45225;-89
2023/05/16 17:15:19;;;;;;;;;0.00;0.00;;;;;;;;4637329;30;45171;-89
2023/05/16 17:17:44;;;;;;;;;0.00;0.00;;;;;;;;4646375;30;45227;-89
2023/05/16 17:20:11;;;;;;;;;1.00;1.00;;;;;;;;4634643;30;45274;-89
2023/05/16 17:22:36;;;;;;;;;0.00;0.00;;;;;;;;4654464;30;45474;-89
2023/05/16 17:25:02;;;;;;;;;1.00;1.00;;;;;;;;4647137;30;45447;-89
2023/05/16 17:27:28;;;;;;;;;0.00;0.00;;;;;;;;4629716;30;45434;-89
2023/05/16 17:29:53;;;;;;;;;0.00;0.00;;;;;;;;4645179;30;45357;-89
2023/05/16 17:32:20;;;;;;;;;0.00;0.00;;;;;;;;4633104;30;47191;-89
2023/05/16 17:34:53;;;;;;;;;0.00;0.00;;;;;;;;4649855;30;45402;-89
2023/05/16 17:37:18;;;;;;;;;1.00;1.00;;;;;;;;4639198;30;45516;-89
2023/05/16 17:39:44;;;;;;;;;0.00;0.00;;;;;;;;4649365;30;45414;-89
2023/05/16 17:42:09;;;;;;;;;1.00;1.00;;;;;;;;4645777;30;45435;-89
2023/05/16 17:44:35;;;;;;;;;0.00;0.00;;;;;;;;4638942;30;45448;-89
2023/05/16 17:47:00;;;;;;;;;0.00;0.00;;;;;;;;4631448;30;45349;-89
2023/05/16 17:49:26;;;;;;;;;0.67;0.67;;;;;;;;4630306;30;46472;-89
2023/05/16 17:51:52;;;;;;;;;0.00;0.00;;;;;;;;4641358;30;45536;-89
2023/05/16 17:54:17;;;;;;;;;0.33;0.33;;;;;;;;4631400;30;47019;-88
2023/05/16 17:56:44;;;;;;;;;1.00;1.00;;;;;;;;4627129;30;45445;-90
2023/05/16 17:59:09;;;;;;;;;0.00;0.00;;;;;;;;4629572;30;45616;-90
2023/05/16 18:01:34;;;;;;;;;1.00;1.00;;;;;;;;4645150;30;46198;-91
2023/05/16 18:04:00;;;;;;;;;0.00;0.00;;;;;;;;4627444;30;45188;-91
2023/05/16 18:06:25;;;;;;;;;0.33;0.33;;;;;;;;4647503;30;45413;-91
2023/05/16 18:08:50;;;;;;;;;0.00;0.00;;;;;;;;4626835;30;45410;-91
2023/05/16 18:11:16;;;;;;;;;0.00;0.00;;;;;;;;4644756;30;46147;-90
2023/05/16 18:13:45;;;;;;;;;0.00;0.00;;;;;;;;4632209;30;45252;-90
2023/05/16 18:16:10;;;;;;;;;1.00;1.00;;;;;;;;4626759;30;45376;-90
2023/05/16 18:18:38;;;;;;;;;0.00;0.00;;;;;;;;4645814;30;45625;-90
2023/05/16 18:21:04;;;;;;;;;1.00;1.00;;;;;;;;4635092;30;46725;-90
2023/05/16 18:23:50;;;;;;;;;0.00;0.00;;;;;;;;4636568;30;45363;-90
2023/05/16 18:26:16;;;;;;;;;0.00;0.00;;;;;;;;4634335;30;45256;-90
2023/05/16 18:28:42;;;;;;;;;1.00;0.67;;;;;;;;4629904;30;45583;-90
2023/05/16 18:31:32;;;;;;;;;0.67;0.67;;;;;;;;4642099;30;46402;-90
2023/05/16 18:34:08;;;;;;;;;;;;;;;;;;;;;
2023/05/16 18:36:59;;;;;;;;;1.00;1.00;;;;;;;;4644706;30;66139;-90
2023/05/16 18:39:32;;;;;;;;;0.00;0.00;;;;;;;;4628114;30;45635;-90
2023/05/16 18:41:57;;;;;;;;;1.00;1.00;;;;;;;;4628323;30;47733;-90
2023/05/16 18:44:27;;;;;;;;;0.67;0.67;;;;;;;;4641136;30;45467;-91
2023/05/16 18:46:53;;;;;;;;;1.00;1.00;;;;;;;;4645224;30;46978;-91
2023/05/16 18:49:20;;;;;;;;;1.00;1.00;;;;;;;;4651110;30;45621;-90
2023/05/16 18:51:46;;;;;;;;;1.00;1.00;;;;;;;;4649485;30;47102;-91
2023/05/16 18:54:16;;;;;;;;;0.00;0.00;;;;;;;;4647812;30;45450;-91
2023/05/16 18:56:41;;;;;;;;;2.00;1.00;;;;;;;;4650416;30;45398;-90
2023/05/16 18:59:37;;;;;;;;;1.00;1.00;;;;;;;;4645945;30;45566;-90
2023/05/16 19:02:17;;;;;;;;;1.67;1.33;;;;;;;;4642440;30;46446;-90
2023/05/16 19:04:45;;;;;;;;;0.00;0.00;;;;;;;;4643573;30;45464;-91
2023/05/16 19:07:13;;;;;;;;;1.00;1.00;;;;;;;;4649968;30;45739;-90
2023/05/16 19:09:52;;;;;;;;;;;;;;;;;;;;;
2023/05/16 19:12:20;;;;;;;;;2.00;2.00;;;;;;;;4650810;30;72894;-90
2023/05/16 19:14:51;;;;;;;;;1.67;1.67;;;;;;;;4643771;30;45370;-89
2023/05/16 19:17:17;;;;;;;;;2.00;2.00;;;;;;;;4636399;30;45689;-90
2023/05/16 19:19:42;;;;;;;;;1.67;1.67;;;;;;;;4652050;30;45416;-90
2023/05/16 19:22:07;;;;;;;;;2.00;2.00;;;;;;;;4639370;30;47122;-90
2023/05/16 19:24:32;;;;;;;;;1.00;1.00;;;;;;;;4651429;30;45694;-90
2023/05/16 19:26:58;;;;;;;;;1.00;1.00;;;;;;;;4650420;30;46445;-90
2023/05/16 19:29:26;;;;;;;;;1.00;1.00;;;;;;;;4651644;30;45380;-90
2023/05/16 19:31:51;;;;;;;;;1.00;1.00;;;;;;;;4648966;30;47413;-90
2023/05/16 19:34:17;;;;;;;;;1.00;1.00;;;;;;;;4639868;30;45295;-90
2023/05/16 19:36:43;;;;;;;;;1.00;1.00;;;;;;;;4648944;30;45230;-90
2023/05/16 19:39:08;;;;;;;;;1.00;1.00;;;;;;;;4651043;30;45277;-89
2023/05/16 19:41:36;;;;;;;;;0.67;0.67;;;;;;;;4651497;30;45241;-91
2023/05/16 19:44:02;;;;;;;;;1.00;1.00;;;;;;;;4643367;30;47488;-90
2023/05/16 19:46:27;;;;;;;;;0.33;0.33;;;;;;;;4640486;30;45465;-91
2023/05/16 19:48:52;;;;;;;;;0.00;0.00;;;;;;;;4649768;30;45623;-90
2023/05/16 19:51:18;;;;;;;;;2.00;1.00;;;;;;;;4647943;30;46981;-90
2023/05/16 19:53:44;;;;;;;;;2.33;2.33;;;;;;;;4645779;30;45442;-90
2023/05/16 19:56:10;;;;;;;;;4.50;4.50;;;;;;;;4643642;30;45470;-90
2023/05/16 19:58:35;;;;;;;;;5.67;5.67;;;;;;;;4646401;30;45575;-90
2023/05/16 20:01:00;;;;;;;;;2.33;2.00;;;;;;;;4635551;30;48134;-90
2023/05/16 20:03:26;;;;;;;;;1.00;1.00;;;;;;;;4641369;30;45562;-90
2023/05/16 20:06:04;;;;;;;;;0.00;0.00;;;;;;;;4650661;30;45418;-90
2023/05/16 20:08:31;;;;;;;;;1.67;1.00;;;;;;;;4651241;30;45434;-90
2023/05/16 20:10:59;;;;;;;;;1.00;1.00;;;;;;;;4651889;30;47449;-90
2023/05/16 20:13:25;;;;;;;;;1.33;1.33;;;;;;;;4638862;30;45696;-90
2023/05/16 20:15:50;;;;;;;;;3.00;3.00;;;;;;;;4645439;30;45348;-90
2023/05/16 20:18:24;;;;;;;;;2.33;1.33;;;;;;;;4637219;30;45454;-90
2023/05/16 20:20:50;;;;;;;;;3.00;3.00;;;;;;;;4650488;30;48002;-91
2023/05/16 20:23:15;;;;;;;;;3.00;3.00;;;;;;;;4653850;30;45507;-90
2023/05/16 20:25:43;;;;;;;;;4.33;2.67;;;;;;;;4653995;30;45433;-90
2023/05/16 20:28:08;;;;;;;;;1.67;1.67;;;;;;;;4652394;30;45526;-90
2023/05/16 20:30:33;;;;;;;;;2.00;2.00;;;;;;;;4645061;30;46204;-90
2023/05/16 20:32:58;;;;;;;;;2.67;2.67;;;;;;;;4645803;30;45924;-90
2023/05/16 20:35:27;;;;;;;;;2.33;2.33;;;;;;;;4644921;30;45227;-90
2023/05/16 20:37:52;;;;;;;;;3.00;3.00;;;;;;;;4648289;30;45697;-90
2023/05/16 20:40:18;;;;;;;;;3.00;3.00;;;;;;;;4652645;30;48147;-90
2023/05/16 20:42:46;;;;;;;;;3.33;3.33;;;;;;;;4648282;30;45466;-90
2023/05/16 20:45:11;;;;;;;;;4.00;4.00;;;;;;;;4638184;30;45434;-90
2023/05/16 20:47:39;;;;;;;;;3.67;3.67;;;;;;;;4636602;30;45348;-90
2023/05/16 20:50:05;;;;;;;;;5.00;5.00;;;;;;;;4650114;30;47285;-90
2023/05/16 20:52:30;;;;;;;;;3.33;3.33;;;;;;;;4637172;30;45258;-90
2023/05/16 20:55:00;;;;;;;;;3.00;3.00;;;;;;;;4642191;30;45381;-90
2023/05/16 20:57:26;;;;;;;;;3.33;3.33;;;;;;;;4650262;30;45484;-89
2023/05/16 20:59:51;;;;;;;;;2.67;2.67;;;;;;;;4651097;30;46224;-90
2023/05/16 21:02:16;;;;;;;;;2.00;2.00;;;;;;;;4653372;30;45486;-90
2023/05/16 21:04:42;;;;;;;;;3.33;3.33;;;;;;;;4654707;30;45238;-90
2023/05/16 21:07:07;;;;;;;;;5.00;5.00;;;;;;;;4650819;30;45311;-90
2023/05/16 21:09:40;;;;;;;;;3.67;3.00;;;;;;;;4643992;30;46995;-90
2023/05/16 21:12:05;;;;;;;;;3.00;3.00;;;;;;;;4653068;30;45366;-90
2023/05/16 21:14:34;;;;;;;;;4.67;4.33;;;;;;;;4653437;30;45449;-90
2023/05/16 21:16:59;;;;;;;;;3.67;3.67;;;;;;;;4647111;30;46080;-90
2023/05/16 21:19:24;;;;;;;;;0.67;0.67;;;;;;;;4657112;30;46116;-90
2023/05/16 21:21:49;;;;;;;;;2.00;2.00;;;;;;;;4653556;30;45252;-90
2023/05/16 21:24:15;;;;;;;;;4.00;4.00;;;;;;;;4638971;30;45220;-90
2023/05/16 21:26:40;;;;;;;;;4.33;4.33;;;;;;;;4647312;30;45584;-90
2023/05/16 21:29:05;;;;;;;;;5.33;5.33;;;;;;;;4646608;30;48063;-90
2023/05/16 21:31:31;;;;;;;;;8.00;6.67;;;;;;;;4651224;30;45433;-90
2023/05/16 21:33:56;;;;;;;;;1.67;1.67;;;;;;;;4654254;30;45234;-90
2023/05/16 21:36:23;;;;;;;;;7.67;7.67;;;;;;;;4647867;30;45569;-90
2023/05/16 21:38:49;;;;;;;;;5.00;5.00;;;;;;;;4644709;30;46273;-91
2023/05/16 21:41:14;;;;;;;;;7.33;7.33;;;;;;;;4635525;30;45465;-90
2023/05/16 21:43:40;;;;;;;;;5.33;5.33;;;;;;;;4643825;30;45431;-90
2023/05/16 21:46:05;;;;;;;;;5.67;5.67;;;;;;;;4643438;30;45269;-90
2023/05/16 21:48:30;;;;;;;;;5.00;5.00;;;;;;;;4652300;30;46860;-90
2023/05/16 21:50:55;;;;;;;;;6.00;6.00;;;;;;;;4652631;30;45518;-90
2023/05/16 21:53:26;;;;;;;;;6.00;5.67;;;;;;;;4652938;30;45460;-90
2023/05/16 21:55:51;;;;;;;;;7.00;7.00;;;;;;;;4653228;30;45218;-90
2023/05/16 21:58:20;;;;;;;;;3.67;3.67;;;;;;;;4640149;30;47273;-90
2023/05/16 22:00:49;;;;;;;;;4.67;4.67;;;;;;;;4636817;30;45557;-90
2023/05/16 22:03:19;;;;;;;;;5.00;5.00;;;;;;;;4643984;30;47160;-90
2023/05/16 22:05:45;;;;;;;;;4.00;4.00;;;;;;;;4638907;30;45314;-90
2023/05/16 22:08:16;;;;;;;;;4.00;4.00;;;;;;;;4643849;30;46381;-90
2023/05/16 22:10:41;;;;;;;;;4.67;4.67;;;;;;;;4640309;30;45431;-90
2023/05/16 22:13:06;;;;;;;;;5.00;5.00;;;;;;;;4641758;30;45373;-90
2023/05/16 22:15:32;;;;;;;;;4.00;4.00;;;;;;;;4636838;30;45245;-90
2023/05/16 22:17:57;;;;;;;;;4.00;4.00;;;;;;;;4640546;30;48133;-90
2023/05/16 22:20:25;;;;;;;;;5.33;5.33;;;;;;;;4656357;30;45613;-90
2023/05/16 22:22:53;;;;;;;;;4.00;4.00;;;;;;;;4642160;30;45564;-90
2023/05/16 22:25:19;;;;;;;;;5.00;5.00;;;;;;;;4635322;30;45260;-90
2023/05/16 22:27:44;;;;;;;;;4.00;4.00;;;;;;;;4649751;30;45532;-90
2023/05/16 22:30:10;;;;;;;;;3.00;3.00;;;;;;;;4635330;30;45163;-90
2023/05/16 22:32:37;;;;;;;;;2.00;2.00;;;;;;;;4642627;30;45387;-90
2023/05/16 22:35:03;;;;;;;;;6.00;4.33;;;;;;;;4646516;30;45578;-90
2023/05/16 22:37:28;;;;;;;;;4.67;4.67;;;;;;;;4648296;30;45874;-89
2023/05/16 22:39:55;;;;;;;;;3.00;3.00;;;;;;;;4651820;30;45426;-90
2023/05/16 22:42:21;;;;;;;;;2.00;2.00;;;;;;;;4651531;30;45478;-90
2023/05/16 22:44:46;;;;;;;;;3.00;3.00;;;;;;;;4652343;30;45430;-89